sensor_id;sensor_type;location;lat;lon;timestamp;temperature;humidity
54124;DHT22;55741;53.252;5.788;2023-06-26T00:02:17;22.10;99.90
54124;DHT22;55741;53.252;5.788;2023-06-26T00:04:43;22.10;99.90
54124;DHT22;55741;53.252;5.788;2023-06-26T00:07:09;22.20;99.90
54124;DHT22;55741;53.252;5.788;2023-06-26T00:09:35;22.20;99.90
54124;DHT22;55741;53.252;5.788;2023-06-26T00:12:01;22.20;99.90
54124;DHT22;55741;53.252;5.788;2023-06-26T00:14:27;22.20;99.90
54124;DHT22;55741;53.252;5.788;2023-06-26T00:16:53;22.20;99.90
54124;DHT22;55741;53.252;5.788;2023-06-26T00:19:19;22.20;99.90
54124;DHT22;55741;53.252;5.788;2023-06-26T00:21:45;22.20;99.90
54124;DHT22;55741;53.252;5.788;2023-06-26T00:24:17;22.20;99.90
54124;DHT22;55741;53.252;5.788;2023-06-26T00:26:45;22.20;99.90
54124;DHT22;55741;53.252;5.788;2023-06-26T00:29:11;22.30;99.90
54124;DHT22;55741;53.252;5.788;2023-06-26T00:31:36;22.20;99.90
54124;DHT22;55741;53.252;5.788;2023-06-26T00:34:03;22.30;99.90
54124;DHT22;55741;53.252;5.788;2023-06-26T00:36:31;22.30;99.90
54124;DHT22;55741;53.252;5.788;2023-06-26T00:38:56;22.30;99.90
54124;DHT22;55741;53.252;5.788;2023-06-26T00:41:22;22.30;99.90
54124;DHT22;55741;53.252;5.788;2023-06-26T00:43:49;22.30;99.90
54124;DHT22;55741;53.252;5.788;2023-06-26T00:46:15;22.30;99.90
54124;DHT22;55741;53.252;5.788;2023-06-26T00:48:42;22.30;99.90
54124;DHT22;55741;53.252;5.788;2023-06-26T00:51:08;22.20;99.90
54124;DHT22;55741;53.252;5.788;2023-06-26T00:53:35;22.20;99.90
54124;DHT22;55741;53.252;5.788;2023-06-26T00:56:01;22.20;99.90
54124;DHT22;55741;53.252;5.788;2023-06-26T00:58:27;22.30;99.90
54124;DHT22;55741;53.252;5.788;2023-06-26T01:00:54;22.30;99.90
54124;DHT22;55741;53.252;5.788;2023-06-26T01:03:22;22.30;99.90
54124;DHT22;55741;53.252;5.788;2023-06-26T01:05:48;22.20;99.90
54124;DHT22;55741;53.252;5.788;2023-06-26T01:08:16;22.20;99.90
54124;DHT22;55741;53.252;5.788;2023-06-26T01:10:42;22.20;99.90
54124;DHT22;55741;53.252;5.788;2023-06-26T01:13:08;22.10;99.90
54124;DHT22;55741;53.252;5.788;2023-06-26T01:15:34;22.10;99.90
54124;DHT22;55741;53.252;5.788;2023-06-26T01:18:01;22.10;99.90
54124;DHT22;55741;53.252;5.788;2023-06-26T01:20:32;22.10;99.90
54124;DHT22;55741;53.252;5.788;2023-06-26T01:23:24;22.10;99.90
54124;DHT22;55741;53.252;5.788;2023-06-26T01:26:08;22.10;99.90
54124;DHT22;55741;53.252;5.788;2023-06-26T01:28:39;22.20;99.90
54124;DHT22;55741;53.252;5.788;2023-06-26T01:31:07;22.10;99.90
54124;DHT22;55741;53.252;5.788;2023-06-26T01:33:34;22.20;99.90
54124;DHT22;55741;53.252;5.788;2023-06-26T01:36:01;22.20;99.90
54124;DHT22;55741;53.252;5.788;2023-06-26T01:38:28;22.20;99.90
54124;DHT22;55741;53.252;5.788;2023-06-26T01:40:54;22.20;99.90
54124;DHT22;55741;53.252;5.788;2023-06-26T01:46:36;22.20;99.90
54124;DHT22;55741;53.252;5.788;2023-06-26T01:49:12;22.30;99.90
54124;DHT22;55741;53.252;5.788;2023-06-26T01:51:47;22.20;99.90
54124;DHT22;55741;53.252;5.788;2023-06-26T01:54:18;22.20;99.90
54124;DHT22;55741;53.252;5.788;2023-06-26T01:56:49;22.20;99.90
54124;DHT22;55741;53.252;5.788;2023-06-26T01:59:15;22.20;99.90
54124;DHT22;55741;53.252;5.788;2023-06-26T02:01:43;22.20;99.90
54124;DHT22;55741;53.252;5.788;2023-06-26T02:04:09;22.20;99.90
54124;DHT22;55741;53.252;5.788;2023-06-26T02:06:35;22.20;99.90
54124;DHT22;55741;53.252;5.788;2023-06-26T02:09:00;22.10;99.90
54124;DHT22;55741;53.252;5.788;2023-06-26T02:11:26;22.10;99.90
54124;DHT22;55741;53.252;5.788;2023-06-26T02:13:52;22.10;99.90
54124;DHT22;55741;53.252;5.788;2023-06-26T02:16:18;22.00;99.90
54124;DHT22;55741;53.252;5.788;2023-06-26T02:18:44;21.90;99.90
54124;DHT22;55741;53.252;5.788;2023-06-26T02:21:10;21.90;99.90
54124;DHT22;55741;53.252;5.788;2023-06-26T02:23:36;21.80;99.90
54124;DHT22;55741;53.252;5.788;2023-06-26T02:26:02;21.80;99.90
54124;DHT22;55741;53.252;5.788;2023-06-26T02:28:28;21.70;99.90
54124;DHT22;55741;53.252;5.788;2023-06-26T02:30:56;21.60;99.90
54124;DHT22;55741;53.252;5.788;2023-06-26T02:33:22;21.60;99.90
54124;DHT22;55741;53.252;5.788;2023-06-26T02:35:48;21.60;99.90
54124;DHT22;55741;53.252;5.788;2023-06-26T02:38:16;21.60;99.90
54124;DHT22;55741;53.252;5.788;2023-06-26T02:40:43;21.50;99.90
54124;DHT22;55741;53.252;5.788;2023-06-26T02:43:09;21.50;99.90
54124;DHT22;55741;53.252;5.788;2023-06-26T02:45:35;21.50;99.90
54124;DHT22;55741;53.252;5.788;2023-06-26T02:48:01;21.40;99.90
54124;DHT22;55741;53.252;5.788;2023-06-26T02:50:26;21.40;99.90
54124;DHT22;55741;53.252;5.788;2023-06-26T02:52:52;21.40;99.90
54124;DHT22;55741;53.252;5.788;2023-06-26T02:55:19;21.30;99.90
54124;DHT22;55741;53.252;5.788;2023-06-26T02:57:46;21.30;99.90
54124;DHT22;55741;53.252;5.788;2023-06-26T03:00:12;21.30;99.90
54124;DHT22;55741;53.252;5.788;2023-06-26T03:02:38;21.20;99.90
54124;DHT22;55741;53.252;5.788;2023-06-26T03:05:04;21.20;99.90
54124;DHT22;55741;53.252;5.788;2023-06-26T03:07:30;21.20;99.90
54124;DHT22;55741;53.252;5.788;2023-06-26T03:09:56;21.10;99.90
54124;DHT22;55741;53.252;5.788;2023-06-26T03:12:22;21.00;99.90
54124;DHT22;55741;53.252;5.788;2023-06-26T03:14:48;21.00;99.90
54124;DHT22;55741;53.252;5.788;2023-06-26T03:17:14;21.00;99.90
54124;DHT22;55741;53.252;5.788;2023-06-26T03:19:40;20.90;99.90
54124;DHT22;55741;53.252;5.788;2023-06-26T03:22:05;20.90;99.90
54124;DHT22;55741;53.252;5.788;2023-06-26T03:24:31;20.90;99.90
54124;DHT22;55741;53.252;5.788;2023-06-26T03:26:57;20.80;99.90
54124;DHT22;55741;53.252;5.788;2023-06-26T03:29:23;20.80;99.90
54124;DHT22;55741;53.252;5.788;2023-06-26T03:31:48;20.80;99.90
54124;DHT22;55741;53.252;5.788;2023-06-26T03:34:14;20.80;99.90
54124;DHT22;55741;53.252;5.788;2023-06-26T03:36:40;20.70;99.90
54124;DHT22;55741;53.252;5.788;2023-06-26T03:39:06;20.70;99.90
54124;DHT22;55741;53.252;5.788;2023-06-26T03:41:34;20.70;99.90
54124;DHT22;55741;53.252;5.788;2023-06-26T03:44:00;20.70;99.90
54124;DHT22;55741;53.252;5.788;2023-06-26T03:46:26;20.70;99.90
54124;DHT22;55741;53.252;5.788;2023-06-26T03:48:52;20.70;99.90
54124;DHT22;55741;53.252;5.788;2023-06-26T03:51:18;20.70;99.90
54124;DHT22;55741;53.252;5.788;2023-06-26T03:53:44;20.70;99.90
54124;DHT22;55741;53.252;5.788;2023-06-26T03:56:09;20.60;99.90
54124;DHT22;55741;53.252;5.788;2023-06-26T03:58:35;20.60;99.90
54124;DHT22;55741;53.252;5.788;2023-06-26T04:01:01;20.60;99.90
54124;DHT22;55741;53.252;5.788;2023-06-26T04:03:27;20.50;99.90
54124;DHT22;55741;53.252;5.788;2023-06-26T04:05:53;20.50;99.90
54124;DHT22;55741;53.252;5.788;2023-06-26T04:08:18;20.40;99.90
54124;DHT22;55741;53.252;5.788;2023-06-26T04:10:45;20.40;99.90
54124;DHT22;55741;53.252;5.788;2023-06-26T04:13:11;20.40;99.90
54124;DHT22;55741;53.252;5.788;2023-06-26T04:15:37;20.30;99.90
54124;DHT22;55741;53.252;5.788;2023-06-26T04:18:03;20.20;99.90
54124;DHT22;55741;53.252;5.788;2023-06-26T04:20:29;20.20;99.90
54124;DHT22;55741;53.252;5.788;2023-06-26T04:22:55;20.10;99.90
54124;DHT22;55741;53.252;5.788;2023-06-26T04:25:20;20.00;99.90
54124;DHT22;55741;53.252;5.788;2023-06-26T04:27:46;20.00;99.90
54124;DHT22;55741;53.252;5.788;2023-06-26T04:30:13;19.90;99.90
54124;DHT22;55741;53.252;5.788;2023-06-26T04:32:38;19.90;99.90
54124;DHT22;55741;53.252;5.788;2023-06-26T04:35:05;19.80;99.90
54124;DHT22;55741;53.252;5.788;2023-06-26T04:37:30;19.80;99.90
54124;DHT22;55741;53.252;5.788;2023-06-26T04:39:56;19.80;99.90
54124;DHT22;55741;53.252;5.788;2023-06-26T04:42:23;19.80;99.90
54124;DHT22;55741;53.252;5.788;2023-06-26T04:44:49;19.80;99.90
54124;DHT22;55741;53.252;5.788;2023-06-26T04:47:15;19.70;99.90
54124;DHT22;55741;53.252;5.788;2023-06-26T04:49:42;19.70;99.90
54124;DHT22;55741;53.252;5.788;2023-06-26T04:52:12;19.60;99.90
54124;DHT22;55741;53.252;5.788;2023-06-26T04:54:39;19.60;99.90
54124;DHT22;55741;53.252;5.788;2023-06-26T04:57:05;19.60;99.90
54124;DHT22;55741;53.252;5.788;2023-06-26T04:59:31;19.60;99.90
54124;DHT22;55741;53.252;5.788;2023-06-26T05:01:57;19.50;99.90
54124;DHT22;55741;53.252;5.788;2023-06-26T05:04:23;19.50;99.90
54124;DHT22;55741;53.252;5.788;2023-06-26T05:06:49;19.50;99.90
54124;DHT22;55741;53.252;5.788;2023-06-26T05:09:15;19.50;99.90
54124;DHT22;55741;53.252;5.788;2023-06-26T05:11:40;19.40;99.90
54124;DHT22;55741;53.252;5.788;2023-06-26T05:14:06;19.40;99.90
54124;DHT22;55741;53.252;5.788;2023-06-26T05:16:35;19.40;99.90
54124;DHT22;55741;53.252;5.788;2023-06-26T05:19:02;19.30;99.90
54124;DHT22;55741;53.252;5.788;2023-06-26T05:21:28;19.30;99.90
54124;DHT22;55741;53.252;5.788;2023-06-26T05:23:56;19.30;99.90
54124;DHT22;55741;53.252;5.788;2023-06-26T05:26:22;19.30;99.90
54124;DHT22;55741;53.252;5.788;2023-06-26T05:28:48;19.30;99.90
54124;DHT22;55741;53.252;5.788;2023-06-26T05:31:15;19.30;99.90
54124;DHT22;55741;53.252;5.788;2023-06-26T05:33:43;19.30;99.90
54124;DHT22;55741;53.252;5.788;2023-06-26T05:36:09;19.30;99.90
54124;DHT22;55741;53.252;5.788;2023-06-26T05:38:37;19.30;99.90
54124;DHT22;55741;53.252;5.788;2023-06-26T05:41:03;19.40;99.90
54124;DHT22;55741;53.252;5.788;2023-06-26T05:43:31;19.40;99.90
54124;DHT22;55741;53.252;5.788;2023-06-26T05:45:57;19.40;99.90
54124;DHT22;55741;53.252;5.788;2023-06-26T05:48:25;19.50;99.90
54124;DHT22;55741;53.252;5.788;2023-06-26T05:50:51;19.50;99.90
54124;DHT22;55741;53.252;5.788;2023-06-26T05:53:19;19.60;99.90
54124;DHT22;55741;53.252;5.788;2023-06-26T05:55:45;19.60;99.90
54124;DHT22;55741;53.252;5.788;2023-06-26T05:58:11;19.60;99.90
54124;DHT22;55741;53.252;5.788;2023-06-26T06:00:39;19.60;99.90
54124;DHT22;55741;53.252;5.788;2023-06-26T06:03:05;19.60;99.90
54124;DHT22;55741;53.252;5.788;2023-06-26T06:05:31;19.70;99.90
54124;DHT22;55741;53.252;5.788;2023-06-26T06:07:57;19.70;99.90
54124;DHT22;55741;53.252;5.788;2023-06-26T06:10:23;19.70;99.90
54124;DHT22;55741;53.252;5.788;2023-06-26T06:12:49;19.70;99.90
54124;DHT22;55741;53.252;5.788;2023-06-26T06:15:15;19.80;99.90
54124;DHT22;55741;53.252;5.788;2023-06-26T06:17:41;19.80;99.90
54124;DHT22;55741;53.252;5.788;2023-06-26T06:20:07;19.80;99.90
54124;DHT22;55741;53.252;5.788;2023-06-26T06:22:33;19.80;99.90
54124;DHT22;55741;53.252;5.788;2023-06-26T06:24:58;19.80;99.90
54124;DHT22;55741;53.252;5.788;2023-06-26T06:27:24;19.90;99.90
54124;DHT22;55741;53.252;5.788;2023-06-26T06:29:50;19.90;99.90
54124;DHT22;55741;53.252;5.788;2023-06-26T06:32:16;20.00;99.90
54124;DHT22;55741;53.252;5.788;2023-06-26T06:34:42;20.10;99.90
54124;DHT22;55741;53.252;5.788;2023-06-26T06:37:08;20.20;99.90
54124;DHT22;55741;53.252;5.788;2023-06-26T06:39:34;20.20;99.90
54124;DHT22;55741;53.252;5.788;2023-06-26T06:42:00;20.30;99.90
54124;DHT22;55741;53.252;5.788;2023-06-26T06:44:27;20.40;99.90
54124;DHT22;55741;53.252;5.788;2023-06-26T06:46:53;20.60;99.90
54124;DHT22;55741;53.252;5.788;2023-06-26T06:49:19;20.70;99.90
54124;DHT22;55741;53.252;5.788;2023-06-26T06:51:45;20.80;99.90
54124;DHT22;55741;53.252;5.788;2023-06-26T06:54:10;21.00;99.90
54124;DHT22;55741;53.252;5.788;2023-06-26T06:56:36;21.20;99.90
54124;DHT22;55741;53.252;5.788;2023-06-26T06:59:02;21.40;99.90
54124;DHT22;55741;53.252;5.788;2023-06-26T07:01:28;21.50;99.90
54124;DHT22;55741;53.252;5.788;2023-06-26T07:03:54;21.70;99.90
54124;DHT22;55741;53.252;5.788;2023-06-26T07:06:19;21.70;99.90
54124;DHT22;55741;53.252;5.788;2023-06-26T07:08:45;21.80;99.90
54124;DHT22;55741;53.252;5.788;2023-06-26T07:11:11;21.90;99.90
54124;DHT22;55741;53.252;5.788;2023-06-26T07:13:37;22.00;99.90
54124;DHT22;55741;53.252;5.788;2023-06-26T07:16:03;22.10;99.90
54124;DHT22;55741;53.252;5.788;2023-06-26T07:18:29;22.10;99.90
54124;DHT22;55741;53.252;5.788;2023-06-26T07:20:54;22.10;99.90
54124;DHT22;55741;53.252;5.788;2023-06-26T07:23:20;22.20;99.90
54124;DHT22;55741;53.252;5.788;2023-06-26T07:25:46;22.30;99.90
54124;DHT22;55741;53.252;5.788;2023-06-26T07:28:12;22.20;99.90
54124;DHT22;55741;53.252;5.788;2023-06-26T07:30:38;22.00;99.90
54124;DHT22;55741;53.252;5.788;2023-06-26T07:33:04;22.00;99.90
54124;DHT22;55741;53.252;5.788;2023-06-26T07:35:30;22.20;99.90
54124;DHT22;55741;53.252;5.788;2023-06-26T07:37:56;22.30;99.90
54124;DHT22;55741;53.252;5.788;2023-06-26T07:40:22;22.50;99.90
54124;DHT22;55741;53.252;5.788;2023-06-26T07:42:48;22.60;99.90
54124;DHT22;55741;53.252;5.788;2023-06-26T07:45:16;22.70;99.90
54124;DHT22;55741;53.252;5.788;2023-06-26T07:47:42;22.60;99.90
54124;DHT22;55741;53.252;5.788;2023-06-26T07:50:08;22.50;99.90
54124;DHT22;55741;53.252;5.788;2023-06-26T07:52:34;22.50;99.90
54124;DHT22;55741;53.252;5.788;2023-06-26T07:55:00;22.40;99.90
54124;DHT22;55741;53.252;5.788;2023-06-26T07:57:25;22.40;99.90
54124;DHT22;55741;53.252;5.788;2023-06-26T07:59:51;22.50;99.90
54124;DHT22;55741;53.252;5.788;2023-06-26T08:02:17;22.40;99.90
54124;DHT22;55741;53.252;5.788;2023-06-26T08:04:43;22.20;99.90
54124;DHT22;55741;53.252;5.788;2023-06-26T08:07:09;22.10;99.90
54124;DHT22;55741;53.252;5.788;2023-06-26T08:09:35;22.10;99.90
54124;DHT22;55741;53.252;5.788;2023-06-26T08:12:01;22.10;99.90
54124;DHT22;55741;53.252;5.788;2023-06-26T08:14:27;22.30;99.90
54124;DHT22;55741;53.252;5.788;2023-06-26T08:16:53;22.30;99.90
54124;DHT22;55741;53.252;5.788;2023-06-26T08:19:19;22.50;99.90
54124;DHT22;55741;53.252;5.788;2023-06-26T08:21:46;22.60;99.90
54124;DHT22;55741;53.252;5.788;2023-06-26T08:24:12;22.70;99.90
54124;DHT22;55741;53.252;5.788;2023-06-26T08:26:38;22.60;99.90
54124;DHT22;55741;53.252;5.788;2023-06-26T08:29:05;22.50;99.90
54124;DHT22;55741;53.252;5.788;2023-06-26T08:31:37;22.50;99.90
54124;DHT22;55741;53.252;5.788;2023-06-26T08:34:04;22.40;99.90
54124;DHT22;55741;53.252;5.788;2023-06-26T08:36:31;22.30;99.90
54124;DHT22;55741;53.252;5.788;2023-06-26T08:38:57;22.30;99.90
54124;DHT22;55741;53.252;5.788;2023-06-26T08:41:23;22.30;99.90
54124;DHT22;55741;53.252;5.788;2023-06-26T08:43:49;22.40;99.90
54124;DHT22;55741;53.252;5.788;2023-06-26T08:46:20;22.40;99.90
54124;DHT22;55741;53.252;5.788;2023-06-26T08:48:51;22.40;99.90
54124;DHT22;55741;53.252;5.788;2023-06-26T08:51:17;22.30;99.90
54124;DHT22;55741;53.252;5.788;2023-06-26T08:53:49;22.40;99.90
54124;DHT22;55741;53.252;5.788;2023-06-26T08:56:17;22.40;99.90
54124;DHT22;55741;53.252;5.788;2023-06-26T08:58:46;22.40;99.90
54124;DHT22;55741;53.252;5.788;2023-06-26T09:01:12;22.40;99.90
54124;DHT22;55741;53.252;5.788;2023-06-26T09:03:38;22.60;99.90
54124;DHT22;55741;53.252;5.788;2023-06-26T09:06:04;22.60;99.90
54124;DHT22;55741;53.252;5.788;2023-06-26T09:08:30;22.60;99.90
54124;DHT22;55741;53.252;5.788;2023-06-26T09:10:56;22.50;99.90
54124;DHT22;55741;53.252;5.788;2023-06-26T09:13:22;22.50;99.90
54124;DHT22;55741;53.252;5.788;2023-06-26T09:15:47;22.60;99.90
54124;DHT22;55741;53.252;5.788;2023-06-26T09:18:17;22.70;99.90
54124;DHT22;55741;53.252;5.788;2023-06-26T09:20:43;22.90;99.90
54124;DHT22;55741;53.252;5.788;2023-06-26T09:23:09;23.10;99.90
54124;DHT22;55741;53.252;5.788;2023-06-26T09:25:39;23.20;99.90
54124;DHT22;55741;53.252;5.788;2023-06-26T09:28:05;23.20;99.90
54124;DHT22;55741;53.252;5.788;2023-06-26T09:30:35;23.20;99.90
54124;DHT22;55741;53.252;5.788;2023-06-26T09:33:14;23.20;99.90
54124;DHT22;55741;53.252;5.788;2023-06-26T09:35:41;23.10;99.90
54124;DHT22;55741;53.252;5.788;2023-06-26T09:38:07;23.00;99.90
54124;DHT22;55741;53.252;5.788;2023-06-26T09:40:33;22.80;99.90
54124;DHT22;55741;53.252;5.788;2023-06-26T09:43:09;22.70;99.90
54124;DHT22;55741;53.252;5.788;2023-06-26T09:45:36;22.50;99.90
54124;DHT22;55741;53.252;5.788;2023-06-26T09:48:27;22.20;99.90
54124;DHT22;55741;53.252;5.788;2023-06-26T09:50:54;22.20;99.90
54124;DHT22;55741;53.252;5.788;2023-06-26T09:53:20;22.30;99.90
54124;DHT22;55741;53.252;5.788;2023-06-26T09:55:46;22.50;99.90
54124;DHT22;55741;53.252;5.788;2023-06-26T09:58:13;22.60;99.90
54124;DHT22;55741;53.252;5.788;2023-06-26T10:00:43;22.70;99.90
54124;DHT22;55741;53.252;5.788;2023-06-26T10:03:12;22.90;99.90
54124;DHT22;55741;53.252;5.788;2023-06-26T10:05:40;22.90;99.90
54124;DHT22;55741;53.252;5.788;2023-06-26T10:08:06;22.70;98.60
54124;DHT22;55741;53.252;5.788;2023-06-26T10:10:35;22.70;99.50
54124;DHT22;55741;53.252;5.788;2023-06-26T10:13:11;22.60;99.90
54124;DHT22;55741;53.252;5.788;2023-06-26T10:15:44;22.70;99.90
54124;DHT22;55741;53.252;5.788;2023-06-26T10:18:11;22.90;99.90
54124;DHT22;55741;53.252;5.788;2023-06-26T10:20:40;22.90;99.90
54124;DHT22;55741;53.252;5.788;2023-06-26T10:23:07;23.00;99.90
54124;DHT22;55741;53.252;5.788;2023-06-26T10:25:37;23.10;99.90
54124;DHT22;55741;53.252;5.788;2023-06-26T10:28:05;23.10;99.90
54124;DHT22;55741;53.252;5.788;2023-06-26T10:30:35;23.20;99.90
54124;DHT22;55741;53.252;5.788;2023-06-26T10:33:03;23.20;99.90
54124;DHT22;55741;53.252;5.788;2023-06-26T10:35:30;23.00;99.90
54124;DHT22;55741;53.252;5.788;2023-06-26T10:38:03;22.90;99.90
54124;DHT22;55741;53.252;5.788;2023-06-26T10:40:48;22.80;99.90
54124;DHT22;55741;53.252;5.788;2023-06-26T10:43:17;22.60;99.90
54124;DHT22;55741;53.252;5.788;2023-06-26T10:45:45;22.60;99.90
54124;DHT22;55741;53.252;5.788;2023-06-26T10:48:19;22.60;99.90
54124;DHT22;55741;53.252;5.788;2023-06-26T10:50:49;22.80;99.90
54124;DHT22;55741;53.252;5.788;2023-06-26T10:53:15;23.00;99.90
54124;DHT22;55741;53.252;5.788;2023-06-26T10:55:59;23.00;99.90
54124;DHT22;55741;53.252;5.788;2023-06-26T10:58:43;22.90;99.90
54124;DHT22;55741;53.252;5.788;2023-06-26T11:04:09;23.20;99.90
54124;DHT22;55741;53.252;5.788;2023-06-26T11:06:37;23.30;99.90
54124;DHT22;55741;53.252;5.788;2023-06-26T11:09:09;23.40;99.90
54124;DHT22;55741;53.252;5.788;2023-06-26T11:14:18;23.10;99.90
54124;DHT22;55741;53.252;5.788;2023-06-26T11:16:44;23.30;99.90
54124;DHT22;55741;53.252;5.788;2023-06-26T11:19:11;23.20;99.60
54124;DHT22;55741;53.252;5.788;2023-06-26T11:21:40;23.10;99.90
54124;DHT22;55741;53.252;5.788;2023-06-26T11:24:07;23.10;99.70
54124;DHT22;55741;53.252;5.788;2023-06-26T11:26:40;23.00;99.90
54124;DHT22;55741;53.252;5.788;2023-06-26T11:29:07;23.00;99.90
54124;DHT22;55741;53.252;5.788;2023-06-26T11:31:35;23.00;99.90
54124;DHT22;55741;53.252;5.788;2023-06-26T11:34:05;23.00;99.90
54124;DHT22;55741;53.252;5.788;2023-06-26T11:36:33;22.90;99.80
54124;DHT22;55741;53.252;5.788;2023-06-26T11:39:03;22.80;99.70
54124;DHT22;55741;53.252;5.788;2023-06-26T11:41:31;22.60;99.60
54124;DHT22;55741;53.252;5.788;2023-06-26T11:44:05;22.70;99.90
54124;DHT22;55741;53.252;5.788;2023-06-26T11:46:33;22.70;99.90
54124;DHT22;55741;53.252;5.788;2023-06-26T11:49:03;22.80;99.90
54124;DHT22;55741;53.252;5.788;2023-06-26T11:51:30;22.80;99.90
54124;DHT22;55741;53.252;5.788;2023-06-26T11:53:55;22.80;99.80
54124;DHT22;55741;53.252;5.788;2023-06-26T11:56:21;22.80;99.90
54124;DHT22;55741;53.252;5.788;2023-06-26T11:59:04;22.90;99.90
54124;DHT22;55741;53.252;5.788;2023-06-26T12:04:00;22.70;99.90
54124;DHT22;55741;53.252;5.788;2023-06-26T12:06:33;22.70;99.90
54124;DHT22;55741;53.252;5.788;2023-06-26T12:09:01;22.50;99.90
54124;DHT22;55741;53.252;5.788;2023-06-26T12:11:30;22.60;99.90
54124;DHT22;55741;53.252;5.788;2023-06-26T12:13:57;22.80;99.90
54124;DHT22;55741;53.252;5.788;2023-06-26T12:16:23;22.90;99.80
54124;DHT22;55741;53.252;5.788;2023-06-26T12:18:51;23.10;99.60
54124;DHT22;55741;53.252;5.788;2023-06-26T12:24:08;23.50;99.00
54124;DHT22;55741;53.252;5.788;2023-06-26T12:26:35;23.30;99.10
54124;DHT22;55741;53.252;5.788;2023-06-26T12:29:05;23.30;99.40
54124;DHT22;55741;53.252;5.788;2023-06-26T12:31:32;23.40;99.60
54124;DHT22;55741;53.252;5.788;2023-06-26T12:33:58;23.40;99.50
54124;DHT22;55741;53.252;5.788;2023-06-26T12:36:24;23.20;99.90
54124;DHT22;55741;53.252;5.788;2023-06-26T12:38:53;23.30;99.70
54124;DHT22;55741;53.252;5.788;2023-06-26T12:41:20;23.10;99.80
54124;DHT22;55741;53.252;5.788;2023-06-26T12:43:46;23.10;99.90
54124;DHT22;55741;53.252;5.788;2023-06-26T12:46:12;23.10;99.90
54124;DHT22;55741;53.252;5.788;2023-06-26T12:48:38;23.10;99.60
54124;DHT22;55741;53.252;5.788;2023-06-26T12:51:11;23.00;99.50
54124;DHT22;55741;53.252;5.788;2023-06-26T12:53:38;23.00;99.60
54124;DHT22;55741;53.252;5.788;2023-06-26T12:56:10;23.10;99.60
54124;DHT22;55741;53.252;5.788;2023-06-26T12:58:37;23.10;99.30
54124;DHT22;55741;53.252;5.788;2023-06-26T13:01:07;22.90;99.40
54124;DHT22;55741;53.252;5.788;2023-06-26T13:03:39;22.70;99.50
54124;DHT22;55741;53.252;5.788;2023-06-26T13:06:05;22.60;99.90
54124;DHT22;55741;53.252;5.788;2023-06-26T13:08:31;22.60;99.90
54124;DHT22;55741;53.252;5.788;2023-06-26T13:10:57;22.50;99.90
54124;DHT22;55741;53.252;5.788;2023-06-26T13:13:23;22.60;99.90
54124;DHT22;55741;53.252;5.788;2023-06-26T13:15:49;22.80;99.90
54124;DHT22;55741;53.252;5.788;2023-06-26T13:18:15;22.70;99.90
54124;DHT22;55741;53.252;5.788;2023-06-26T13:20:41;22.70;99.80
54124;DHT22;55741;53.252;5.788;2023-06-26T13:23:07;22.70;99.90
54124;DHT22;55741;53.252;5.788;2023-06-26T13:25:33;22.80;99.80
54124;DHT22;55741;53.252;5.788;2023-06-26T13:27:59;22.70;99.20
54124;DHT22;55741;53.252;5.788;2023-06-26T13:30:25;22.70;99.60
54124;DHT22;55741;53.252;5.788;2023-06-26T13:32:51;22.70;99.50
54124;DHT22;55741;53.252;5.788;2023-06-26T13:35:16;22.80;99.50
54124;DHT22;55741;53.252;5.788;2023-06-26T13:37:42;23.00;99.50
54124;DHT22;55741;53.252;5.788;2023-06-26T13:40:08;22.90;99.50
54124;DHT22;55741;53.252;5.788;2023-06-26T13:42:35;22.90;99.90
54124;DHT22;55741;53.252;5.788;2023-06-26T13:45:02;22.90;99.70
54124;DHT22;55741;53.252;5.788;2023-06-26T13:47:28;23.00;99.90
54124;DHT22;55741;53.252;5.788;2023-06-26T13:49:54;23.10;99.50
54124;DHT22;55741;53.252;5.788;2023-06-26T13:52:22;23.00;99.20
54124;DHT22;55741;53.252;5.788;2023-06-26T13:54:47;23.00;99.30
54124;DHT22;55741;53.252;5.788;2023-06-26T13:57:13;23.00;99.00
54124;DHT22;55741;53.252;5.788;2023-06-26T13:59:39;23.20;98.90
54124;DHT22;55741;53.252;5.788;2023-06-26T14:02:06;23.30;98.80
54124;DHT22;55741;53.252;5.788;2023-06-26T14:04:32;23.50;98.80
54124;DHT22;55741;53.252;5.788;2023-06-26T14:06:58;23.60;98.80
54124;DHT22;55741;53.252;5.788;2023-06-26T14:09:24;23.40;98.40
54124;DHT22;55741;53.252;5.788;2023-06-26T14:11:50;23.40;98.70
54124;DHT22;55741;53.252;5.788;2023-06-26T14:14:16;23.50;98.70
54124;DHT22;55741;53.252;5.788;2023-06-26T14:16:42;23.60;97.90
54124;DHT22;55741;53.252;5.788;2023-06-26T14:19:08;23.60;97.60
54124;DHT22;55741;53.252;5.788;2023-06-26T14:21:40;23.70;97.50
54124;DHT22;55741;53.252;5.788;2023-06-26T14:24:06;23.80;97.60
54124;DHT22;55741;53.252;5.788;2023-06-26T14:26:32;23.80;97.50
54124;DHT22;55741;53.252;5.788;2023-06-26T14:28:59;23.80;97.40
54124;DHT22;55741;53.252;5.788;2023-06-26T14:31:26;23.80;97.30
54124;DHT22;55741;53.252;5.788;2023-06-26T14:33:52;23.70;97.10
54124;DHT22;55741;53.252;5.788;2023-06-26T14:36:17;23.60;97.20
54124;DHT22;55741;53.252;5.788;2023-06-26T14:38:44;23.60;97.00
54124;DHT22;55741;53.252;5.788;2023-06-26T14:41:11;23.40;96.30
54124;DHT22;55741;53.252;5.788;2023-06-26T14:43:38;23.50;96.50
54124;DHT22;55741;53.252;5.788;2023-06-26T14:46:04;23.50;96.90
54124;DHT22;55741;53.252;5.788;2023-06-26T14:48:29;23.60;96.70
54124;DHT22;55741;53.252;5.788;2023-06-26T14:50:55;23.60;96.70
54124;DHT22;55741;53.252;5.788;2023-06-26T14:53:23;23.50;96.40
54124;DHT22;55741;53.252;5.788;2023-06-26T14:55:48;23.50;96.30
54124;DHT22;55741;53.252;5.788;2023-06-26T14:58:14;23.40;96.10
54124;DHT22;55741;53.252;5.788;2023-06-26T15:00:40;23.20;96.10
54124;DHT22;55741;53.252;5.788;2023-06-26T15:03:06;23.00;96.50
54124;DHT22;55741;53.252;5.788;2023-06-26T15:05:32;22.80;96.30
54124;DHT22;55741;53.252;5.788;2023-06-26T15:07:57;22.70;96.20
54124;DHT22;55741;53.252;5.788;2023-06-26T15:10:23;22.70;96.40
54124;DHT22;55741;53.252;5.788;2023-06-26T15:12:49;22.70;96.10
54124;DHT22;55741;53.252;5.788;2023-06-26T15:15:15;22.70;95.90
54124;DHT22;55741;53.252;5.788;2023-06-26T15:17:43;22.80;95.90
54124;DHT22;55741;53.252;5.788;2023-06-26T15:20:09;22.90;95.70
54124;DHT22;55741;53.252;5.788;2023-06-26T15:22:34;23.00;95.30
54124;DHT22;55741;53.252;5.788;2023-06-26T15:25:00;23.00;95.00
54124;DHT22;55741;53.252;5.788;2023-06-26T15:27:26;23.00;94.80
54124;DHT22;55741;53.252;5.788;2023-06-26T15:29:52;23.00;94.80
54124;DHT22;55741;53.252;5.788;2023-06-26T15:32:18;23.00;94.70
54124;DHT22;55741;53.252;5.788;2023-06-26T15:34:44;22.80;94.20
54124;DHT22;55741;53.252;5.788;2023-06-26T15:37:09;22.90;94.70
54124;DHT22;55741;53.252;5.788;2023-06-26T15:39:35;22.90;94.30
54124;DHT22;55741;53.252;5.788;2023-06-26T15:42:03;22.70;94.30
54124;DHT22;55741;53.252;5.788;2023-06-26T15:44:29;22.80;94.30